createdAt,value
2023-02-14T00:00:20.264Z,102272.13
2023-02-14T00:01:21.813Z,102279.81
2023-02-14T00:02:23.354Z,102276.75
2023-02-14T00:03:24.916Z,102266.88
2023-02-14T00:04:26.496Z,102280.31
2023-02-14T00:05:28.054Z,102273.03
2023-02-14T00:06:35.288Z,102278.78
2023-02-14T00:07:36.746Z,102277.91
2023-02-14T00:08:38.362Z,102274.47
2023-02-14T00:09:39.912Z,102272.94
2023-02-14T00:10:41.362Z,102271.03
2023-02-14T00:11:43.186Z,102277.44
2023-02-14T00:12:44.650Z,102277.03
2023-02-14T00:14:04.830Z,102272.19
2023-02-14T00:15:25.198Z,102282.03
2023-02-14T00:16:26.741Z,102280.97
2023-02-14T00:17:28.345Z,102286.91
2023-02-14T00:18:48.648Z,102280.31
2023-02-14T00:19:50.479Z,102259.66
2023-02-14T00:20:52.067Z,102277.53
2023-02-14T00:21:53.637Z,102276.66
2023-02-14T00:22:55.142Z,102279.25
2023-02-14T00:23:56.645Z,102274.75
2023-02-14T00:24:58.139Z,102280.31
2023-02-14T00:25:59.592Z,102282.22
2023-02-14T00:27:01.073Z,102280.88
2023-02-14T00:28:02.719Z,102269.78
2023-02-14T00:29:04.872Z,102276.19
2023-02-14T00:30:07.033Z,102280.66
2023-02-14T00:31:08.541Z,102272.34
2023-02-14T00:32:10.233Z,102272.34
2023-02-14T00:33:11.751Z,102272.34
2023-02-14T00:34:14.041Z,102277.91
2023-02-14T00:35:15.541Z,102276.19
2023-02-14T00:36:16.993Z,102268.91
2023-02-14T00:37:18.511Z,102274.47
2023-02-14T00:38:20.013Z,102272.53
2023-02-14T00:39:21.577Z,102264.22
2023-02-14T00:40:23.090Z,102280.00
2023-02-14T00:41:24.717Z,102273.59
2023-02-14T00:42:26.220Z,102274.47
2023-02-14T00:43:27.703Z,102276.38
2023-02-14T00:44:29.289Z,102278.28
2023-02-14T00:45:30.838Z,102274.47
2023-02-14T00:46:32.705Z,102277.63
2023-02-14T00:47:34.177Z,102278.69
2023-02-14T00:48:35.685Z,102278.69
2023-02-14T00:49:37.130Z,102279.09
2023-02-14T00:50:38.611Z,102281.00
2023-02-14T00:51:40.122Z,102285.69
2023-02-14T00:52:41.549Z,102277.38
2023-02-14T00:53:43.064Z,102285.69
2023-02-14T00:54:44.556Z,102281.00
2023-02-14T00:55:48.567Z,102281.00
2023-02-14T00:56:50.042Z,102278.22
2023-02-14T00:57:51.526Z,102277.38
2023-02-14T00:58:53.025Z,102277.38
2023-02-14T00:59:54.513Z,102281.00
2023-02-14T01:00:56.298Z,102283.97
2023-02-14T01:01:57.922Z,102273.94
2023-02-14T01:02:59.450Z,102280.50
2023-02-14T01:04:00.932Z,102271.50
2023-02-14T01:05:02.385Z,102273.44
2023-02-14T01:06:04.332Z,102276.41
2023-02-14T01:07:05.787Z,102281.94
2023-02-14T01:08:07.478Z,102274.69
2023-02-14T01:09:09.037Z,102276.78
2023-02-14T01:10:10.727Z,102269.53
2023-02-14T01:11:16.066Z,102274.41
2023-02-14T01:12:17.529Z,102281.88
2023-02-14T01:13:19.182Z,102278.34
2023-02-14T01:14:20.668Z,102272.31
2023-02-14T01:15:24.215Z,102271.47
2023-02-14T01:16:26.111Z,102283.59
2023-02-14T01:17:29.612Z,102278.06
2023-02-14T01:18:31.136Z,102279.09
2023-02-14T01:19:32.644Z,102283.97
2023-02-14T01:20:35.081Z,102279.47
2023-02-14T01:21:36.674Z,102289.72
2023-02-14T01:22:38.133Z,102288.00
2023-02-14T01:23:39.667Z,102293.53
2023-02-14T01:24:41.187Z,102289.25
2023-02-14T01:25:42.642Z,102283.69
2023-02-14T01:26:44.101Z,102271.75
2023-02-14T01:27:45.584Z,102274.50
2023-02-14T01:28:48.315Z,102277.28
2023-02-14T01:29:49.891Z,102274.72
2023-02-14T01:30:53.522Z,102264.38
2023-02-14T01:31:55.036Z,102270.41
2023-02-14T01:32:59.690Z,102264.88
2023-02-14T01:34:01.280Z,102264.38
2023-02-14T01:35:04.747Z,102266.47
2023-02-14T01:36:06.502Z,102271.34
2023-02-14T01:37:07.957Z,102261.72
2023-02-14T01:38:10.050Z,102266.56
2023-02-14T01:39:12.486Z,102260.16
2023-02-14T01:40:14.158Z,102262.06
2023-02-14T01:41:17.857Z,102271.44
2023-02-14T01:42:19.320Z,102262.25
2023-02-14T01:43:20.800Z,102263.31
2023-02-14T01:44:25.090Z,102270.09
2023-02-14T01:45:26.804Z,102267.34
2023-02-14T01:46:29.205Z,102269.03
2023-02-14T01:47:31.125Z,102271.81
2023-02-14T01:48:32.613Z,102267.34
2023-02-14T01:49:35.630Z,102265.63
2023-02-14T01:50:38.331Z,102269.44
2023-02-14T01:51:41.337Z,102270.50
2023-02-14T01:53:02.535Z,102266.00
2023-02-14T01:54:04.012Z,102279.00
2023-02-14T01:55:10.053Z,102271.75
2023-02-14T01:56:13.687Z,102278.13
2023-02-14T01:57:15.207Z,102276.22
2023-02-14T01:58:18.999Z,102271.75
2023-02-14T01:59:21.001Z,102274.66
2023-02-14T02:00:41.059Z,102271.03
2023-02-14T02:01:42.661Z,102279.34
2023-02-14T02:02:44.268Z,102276.78
2023-02-14T02:03:50.575Z,102276.78
2023-02-14T02:04:53.392Z,102276.09
2023-02-14T02:05:57.635Z,102273.53
2023-02-14T02:07:00.055Z,102271.63
2023-02-14T02:08:02.949Z,102277.16
2023-02-14T02:09:15.207Z,102272.47
2023-02-14T02:10:16.903Z,102276.31
2023-02-14T02:11:18.373Z,102280.13
2023-02-14T02:12:22.036Z,102277.53
2023-02-14T02:13:23.558Z,102285.19
2023-02-14T02:14:26.298Z,102286.06
2023-02-14T02:15:27.865Z,102279.66
2023-02-14T02:16:32.158Z,102287.97
2023-02-14T02:17:46.354Z,102282.56
2023-02-14T02:18:50.351Z,102287.25
2023-02-14T02:20:09.529Z,102285.34
2023-02-14T02:21:20.409Z,102281.72
2023-02-14T02:22:21.853Z,102286.41
2023-02-14T02:23:42.172Z,102284.69
2023-02-14T02:24:46.837Z,102283.81
2023-02-14T02:26:03.568Z,102286.78
2023-02-14T02:27:08.653Z,102288.69
2023-02-14T02:28:19.250Z,102286.97
2023-02-14T02:29:41.027Z,102286.31
2023-02-14T02:30:42.594Z,102283.53
2023-02-14T02:32:02.752Z,102281.63
2023-02-14T02:33:07.006Z,102272.25
2023-02-14T02:34:14.637Z,102283.53
2023-02-14T02:35:19.360Z,102274.38
2023-02-14T02:36:32.624Z,102279.91
2023-02-14T02:37:54.368Z,102268.69
2023-02-14T02:39:03.628Z,102279.59
2023-02-14T02:40:16.577Z,102276.66
2023-02-14T02:41:19.908Z,102279.44
2023-02-14T02:42:41.712Z,102276.66
2023-02-14T02:43:43.132Z,102271.28
2023-02-14T02:44:52.286Z,102272.53
2023-02-14T02:46:31.994Z,102263.53
2023-02-14T02:47:36.002Z,102272.03
2023-02-14T02:48:41.178Z,102260.50
2023-02-14T02:50:07.385Z,102264.66
2023-02-14T02:51:28.974Z,102273.06
2023-02-14T02:52:51.706Z,102269.44
2023-02-14T02:53:58.241Z,102272.88
2023-02-14T02:55:00.977Z,102269.25
2023-02-14T02:56:29.969Z,102264.09
2023-02-14T02:57:35.503Z,102269.78
2023-02-14T02:58:38.091Z,102271.88
2023-02-14T02:59:40.454Z,102265.47
2023-02-14T03:00:41.963Z,102273.78
2023-02-14T03:01:43.694Z,102264.81
2023-02-14T03:03:05.494Z,102266.53
2023-02-14T03:04:26.312Z,102263.47
2023-02-14T03:05:28.310Z,102267.03
2023-02-14T03:06:30.489Z,102263.75
2023-02-14T03:07:36.136Z,102273.31
2023-02-14T03:08:41.629Z,102275.78
2023-02-14T03:09:50.483Z,102264.03
2023-02-14T03:10:52.071Z,102264.69
2023-02-14T03:12:02.882Z,102272.63
2023-02-14T03:13:19.363Z,102272.81
2023-02-14T03:14:25.055Z,102268.63
2023-02-14T03:15:45.560Z,102271.00
2023-02-14T03:16:47.105Z,102280.88
2023-02-14T03:18:13.881Z,102278.47
2023-02-14T03:19:15.317Z,102281.22
2023-02-14T03:20:17.626Z,102277.59
2023-02-14T03:21:42.311Z,102272.91
2023-02-14T03:22:43.800Z,102267.75
2023-02-14T03:23:45.252Z,102271.22
2023-02-14T03:24:47.044Z,102271.97
2023-02-14T03:25:51.609Z,102272.16
2023-02-14T03:27:11.943Z,102277.88
2023-02-14T03:28:31.908Z,102272.66
2023-02-14T03:29:36.215Z,102270.97
2023-02-14T03:31:01.231Z,102273.53
2023-02-14T03:32:06.012Z,102270.97
2023-02-14T03:33:21.137Z,102257.91
2023-02-14T03:34:29.900Z,102274.78
2023-02-14T03:35:32.798Z,102276.50
2023-02-14T03:36:49.182Z,102278.09
2023-02-14T03:37:51.853Z,102279.44
2023-02-14T03:39:14.200Z,102275.50
2023-02-14T03:40:21.002Z,102274.47
2023-02-14T03:41:23.734Z,102269.97
2023-02-14T03:42:26.274Z,102269.97
2023-02-14T03:43:31.836Z,102262.34
2023-02-14T03:44:35.159Z,102273.03
2023-02-14T03:45:57.019Z,102266.66
2023-02-14T03:46:59.443Z,102273.91
2023-02-14T03:48:02.149Z,102269.22
2023-02-14T03:49:04.783Z,102273.91
2023-02-14T03:50:07.531Z,102268.19
2023-02-14T03:51:09.436Z,102276.69
2023-02-14T03:52:10.990Z,102259.03
2023-02-14T03:53:12.695Z,102267.13
2023-02-14T03:54:14.132Z,102266.28
2023-02-14T03:55:16.195Z,102271.63
2023-02-14T03:56:18.423Z,102268.72
2023-02-14T03:57:21.337Z,102271.47
2023-02-14T03:58:32.830Z,102270.63
2023-02-14T03:59:34.382Z,102268.84
2023-02-14T04:00:36.855Z,102275.25
2023-02-14T04:01:49.241Z,102278.91
2023-02-14T04:02:53.913Z,102274.41
2023-02-14T04:03:55.683Z,102278.91
2023-02-14T04:04:57.205Z,102278.03
2023-02-14T04:05:58.804Z,102278.41
2023-02-14T04:07:00.284Z,102281.16
2023-02-14T04:08:01.766Z,102283.06
2023-02-14T04:09:03.367Z,102289.66
2023-02-14T04:10:05.062Z,102286.22
2023-02-14T04:11:06.591Z,102292.78
2023-02-14T04:12:08.164Z,102291.94
2023-02-14T04:13:09.611Z,102295.56
2023-02-14T04:14:11.110Z,102291.25
2023-02-14T04:15:12.665Z,102290.41
2023-02-14T04:16:14.257Z,102296.97
2023-02-14T04:17:34.242Z,102289.69
2023-02-14T04:18:54.381Z,102298.00
2023-02-14T04:19:55.857Z,102292.63
2023-02-14T04:20:57.545Z,102291.78
2023-02-14T04:21:59.172Z,102293.88
2023-02-14T04:23:03.171Z,102290.25
2023-02-14T04:24:05.140Z,102293.19
2023-02-14T04:25:06.708Z,102294.25
2023-02-14T04:26:08.354Z,102297.00
2023-02-14T04:27:10.106Z,102297.00
2023-02-14T04:28:12.219Z,102298.06
2023-02-14T04:29:13.698Z,102298.06
2023-02-14T04:30:15.333Z,102301.88
2023-02-14T04:31:17.532Z,102298.06
2023-02-14T04:32:19.837Z,102299.09
2023-02-14T04:33:21.343Z,102301.69
2023-02-14T04:34:22.802Z,102298.25
2023-02-14T04:35:24.302Z,102302.91
2023-02-14T04:36:25.885Z,102293.56
2023-02-14T04:37:27.321Z,102310.53
2023-02-14T04:38:28.843Z,102304.31
2023-02-14T04:39:30.456Z,102297.22
2023-02-14T04:40:31.942Z,102300.19
2023-02-14T04:41:33.422Z,102302.94
2023-02-14T04:42:34.883Z,102301.91
2023-02-14T04:43:36.368Z,102301.91
2023-02-14T04:44:40.550Z,102304.84
2023-02-14T04:45:42.051Z,102299.31
2023-02-14T04:46:43.569Z,102300.34
2023-02-14T04:47:45.064Z,102300.50
2023-02-14T04:48:46.546Z,102295.00
2023-02-14T04:49:48.010Z,102302.41
2023-02-14T04:50:52.863Z,102298.78
2023-02-14T04:51:54.373Z,102291.53
2023-02-14T04:52:55.896Z,102293.44
2023-02-14T04:53:57.390Z,102295.34
2023-02-14T04:54:58.838Z,102293.44
2023-02-14T04:56:00.294Z,102289.28
2023-02-14T04:57:01.850Z,102294.16
2023-02-14T04:58:03.313Z,102296.06
2023-02-14T04:59:04.832Z,102290.53
2023-02-14T05:00:06.849Z,102295.00
2023-02-14T05:01:08.359Z,102290.53
2023-02-14T05:02:09.941Z,102288.63
2023-02-14T05:03:11.509Z,102293.28
2023-02-14T05:04:13.060Z,102284.31
2023-02-14T05:05:14.542Z,102288.66
2023-02-14T05:06:15.985Z,102288.16
2023-02-14T05:07:17.499Z,102288.03
2023-02-14T05:08:18.982Z,102286.50
2023-02-14T05:09:20.460Z,102294.44
2023-02-14T05:10:21.952Z,102294.44
2023-02-14T05:11:23.479Z,102290.50
2023-02-14T05:12:25.041Z,102289.78
2023-02-14T05:13:26.623Z,102290.69
2023-02-14T05:14:28.141Z,102287.22
2023-02-14T05:15:29.797Z,102288.06
2023-02-14T05:16:31.387Z,102285.47
2023-02-14T05:17:32.925Z,102287.94
2023-02-14T05:18:34.417Z,102294.69
2023-02-14T05:19:35.881Z,102296.75
2023-02-14T05:20:37.371Z,102295.72
2023-02-14T05:21:38.871Z,102291.63
2023-02-14T05:22:40.414Z,102297.31
2023-02-14T05:23:41.913Z,102304.25
2023-02-14T05:24:43.363Z,102300.13
2023-02-14T05:25:44.947Z,102298.75
2023-02-14T05:26:46.499Z,102295.28
2023-02-14T05:27:48.041Z,102301.16
2023-02-14T05:28:49.525Z,102302.00
2023-02-14T05:29:51.045Z,102301.31
2023-02-14T05:30:52.662Z,102307.00
2023-02-14T05:31:54.234Z,102298.00
2023-02-14T05:32:55.831Z,102295.25
2023-02-14T05:33:57.314Z,102292.31
2023-02-14T05:35:00.959Z,102295.25
2023-02-14T05:36:02.818Z,102293.88
2023-02-14T05:37:04.334Z,102294.75
2023-02-14T05:38:05.796Z,102292.53
2023-02-14T05:39:07.242Z,102302.88
2023-02-14T05:40:09.212Z,102293.72
2023-02-14T05:41:10.695Z,102296.50
2023-02-14T05:42:12.209Z,102289.25
2023-02-14T05:43:13.773Z,102299.94
2023-02-14T05:44:15.229Z,102301.50
2023-02-14T05:45:16.765Z,102295.28
2023-02-14T05:46:18.261Z,102292.91
2023-02-14T05:47:19.726Z,102296.50
2023-02-14T05:48:21.232Z,102296.84
2023-02-14T05:49:22.693Z,102291.84
2023-02-14T05:50:24.143Z,102295.44
2023-02-14T05:51:28.505Z,102292.19
2023-02-14T05:52:29.973Z,102294.94
2023-02-14T05:53:31.422Z,102295.28
2023-02-14T05:54:32.892Z,102298.38
2023-02-14T05:55:34.368Z,102286.13
2023-02-14T05:56:35.825Z,102290.97
2023-02-14T05:57:37.325Z,102289.94
2023-02-14T05:58:38.824Z,102292.53
2023-02-14T05:59:40.266Z,102292.53
2023-02-14T06:00:41.749Z,102293.03
2023-02-14T06:01:43.194Z,102296.47
2023-02-14T06:02:44.713Z,102288.00
2023-02-14T06:03:46.167Z,102298.00
2023-02-14T06:04:47.655Z,102290.09
2023-02-14T06:05:49.167Z,102295.97
2023-02-14T06:06:50.634Z,102298.38
2023-02-14T06:07:52.343Z,102295.91
2023-02-14T06:08:53.821Z,102303.00
2023-02-14T06:09:55.249Z,102302.84
2023-02-14T06:10:56.709Z,102290.56
2023-02-14T06:11:58.945Z,102304.19
2023-02-14T06:13:00.434Z,102303.16
2023-02-14T06:14:01.912Z,102307.28
2023-02-14T06:15:03.514Z,102309.88
2023-02-14T06:16:05.404Z,102306.06
2023-02-14T06:17:06.937Z,102307.28
2023-02-14T06:18:08.459Z,102300.09
2023-02-14T06:19:09.939Z,102308.88
2023-02-14T06:20:11.573Z,102309.78
2023-02-14T06:21:13.035Z,102311.13
2023-02-14T06:22:14.578Z,102312.34
2023-02-14T06:23:16.051Z,102313.91
2023-02-14T06:24:17.784Z,102303.22
2023-02-14T06:25:20.228Z,102309.09
2023-02-14T06:26:21.720Z,102316.34
2023-02-14T06:27:23.221Z,102314.25
2023-02-14T06:28:24.707Z,102309.94
2023-02-14T06:29:26.204Z,102316.50
2023-02-14T06:30:27.757Z,102316.53
2023-02-14T06:31:29.442Z,102311.34
2023-02-14T06:32:30.966Z,102309.09
2023-02-14T06:33:32.561Z,102314.59
2023-02-14T06:34:34.054Z,102317.03
2023-02-14T06:35:35.504Z,102313.56
2023-02-14T06:36:37.052Z,102319.97
2023-02-14T06:37:41.119Z,102322.56
2023-02-14T06:38:42.591Z,102320.84
2023-02-14T06:39:44.139Z,102319.09
2023-02-14T06:40:45.634Z,102320.16
2023-02-14T06:41:47.105Z,102319.09
2023-02-14T06:42:48.692Z,102319.09
2023-02-14T06:43:50.239Z,102325.31
2023-02-14T06:44:51.741Z,102331.88
2023-02-14T06:45:53.250Z,102336.34
2023-02-14T06:46:54.744Z,102332.91
2023-02-14T06:47:56.330Z,102328.09
2023-02-14T06:48:57.810Z,102331.88
2023-02-14T06:50:00.044Z,102332.91
2023-02-14T06:51:01.993Z,102330.66
2023-02-14T06:52:04.373Z,102330.66
2023-02-14T06:53:06.306Z,102330.47
2023-02-14T06:54:07.813Z,102332.72
2023-02-14T06:55:09.301Z,102335.81
2023-02-14T06:56:10.779Z,102331.34
2023-02-14T06:57:12.257Z,102333.91
2023-02-14T06:58:13.975Z,102333.22
2023-02-14T06:59:15.499Z,102333.72
2023-02-14T07:00:17.225Z,102335.09
2023-02-14T07:01:18.752Z,102337.53
2023-02-14T07:02:22.249Z,102334.22
2023-02-14T07:03:25.581Z,102330.78
2023-02-14T07:04:27.047Z,102316.47
2023-02-14T07:05:28.507Z,102333.56
2023-02-14T07:06:30.042Z,102340.09
2023-02-14T07:07:31.544Z,102336.31
2023-02-14T07:08:33.022Z,102329.19
2023-02-14T07:09:34.572Z,102334.38
2023-02-14T07:10:36.066Z,102328.47
2023-02-14T07:11:37.510Z,102326.63
2023-02-14T07:12:41.744Z,102333.69
2023-02-14T07:13:44.000Z,102322.63
2023-02-14T07:14:45.480Z,102327.78
2023-02-14T07:15:47.396Z,102319.31
2023-02-14T07:16:48.968Z,102331.06
2023-02-14T07:17:50.458Z,102331.72
2023-02-14T07:18:51.939Z,102323.97
2023-02-14T07:19:53.389Z,102320.34
2023-02-14T07:20:54.970Z,102333.13
2023-02-14T07:21:56.478Z,102328.28
2023-02-14T07:22:57.930Z,102325.53
2023-02-14T07:23:59.397Z,102329.16
2023-02-14T07:25:00.904Z,102330.00
2023-02-14T07:26:02.388Z,102328.28
2023-02-14T07:27:03.895Z,102327.59
2023-02-14T07:28:05.456Z,102327.59
2023-02-14T07:29:06.952Z,102332.06
2023-02-14T07:30:08.704Z,102329.81
2023-02-14T07:31:10.276Z,102332.41
2023-02-14T07:32:11.980Z,102326.50
2023-02-14T07:33:13.462Z,102315.69
2023-02-14T07:34:14.944Z,102325.31
2023-02-14T07:35:16.495Z,102329.25
2023-02-14T07:36:18.076Z,102333.41
2023-02-14T07:37:19.656Z,102332.38
2023-02-14T07:38:21.092Z,102339.63
2023-02-14T07:39:22.568Z,102332.88
2023-02-14T07:40:25.253Z,102332.88
2023-02-14T07:41:27.009Z,102336.50
2023-02-14T07:42:28.466Z,102330.59
2023-02-14T07:43:30.092Z,102324.06
2023-02-14T07:44:31.589Z,102330.47
2023-02-14T07:45:33.045Z,102335.84
2023-02-14T07:46:34.573Z,102326.94
2023-02-14T07:47:36.062Z,102327.59
2023-02-14T07:48:39.293Z,102325.22
2023-02-14T07:49:40.827Z,102332.78
2023-02-14T07:50:42.287Z,102328.28
2023-02-14T07:51:43.731Z,102331.16
2023-02-14T07:52:45.385Z,102332.75
2023-02-14T07:53:47.045Z,102324.75
2023-02-14T07:54:48.559Z,102333.78
2023-02-14T07:55:50.837Z,102328.94
2023-02-14T07:56:52.345Z,102329.59
2023-02-14T07:57:53.911Z,102325.97
2023-02-14T07:58:55.411Z,102328.41
2023-02-14T07:59:56.885Z,102330.13
2023-02-14T08:00:58.760Z,102327.34
2023-02-14T08:02:00.543Z,102335.03
2023-02-14T08:03:02.066Z,102334.50
2023-02-14T08:04:03.633Z,102324.66
2023-02-14T08:05:05.333Z,102325.81
2023-02-14T08:06:06.878Z,102327.22
2023-02-14T08:07:08.335Z,102328.56
2023-02-14T08:08:09.904Z,102325.13
2023-02-14T08:09:11.394Z,102326.66
2023-02-14T08:10:13.209Z,102326.13
2023-02-14T08:11:38.266Z,102326.00
2023-02-14T08:12:58.192Z,102327.25
2023-02-14T08:13:59.661Z,102324.81
2023-02-14T08:15:21.171Z,102326.88
2023-02-14T08:16:22.670Z,102328.94
2023-02-14T08:17:24.259Z,102318.56
2023-02-14T08:18:27.534Z,102327.34
2023-02-14T08:19:29.252Z,102329.63
2023-02-14T08:20:30.722Z,102331.16
2023-02-14T08:21:32.215Z,102324.94
2023-02-14T08:22:33.784Z,102334.09
2023-02-14T08:23:35.424Z,102331.31
2023-02-14T08:24:36.967Z,102337.53
2023-02-14T08:25:39.158Z,102326.78
2023-02-14T08:26:40.620Z,102344.09
2023-02-14T08:27:42.078Z,102328.19
2023-02-14T08:28:43.724Z,102332.31
2023-02-14T08:29:45.169Z,102331.13
2023-02-14T08:30:46.765Z,102328.19
2023-02-14T08:31:48.831Z,102329.91
2023-02-14T08:32:50.383Z,102327.47
2023-02-14T08:33:52.006Z,102332.31
2023-02-14T08:34:53.602Z,102335.75
2023-02-14T08:35:55.128Z,102325.03
2023-02-14T08:36:56.576Z,102334.72
2023-02-14T08:37:58.095Z,102323.66
2023-02-14T08:38:59.589Z,102331.28
2023-02-14T08:40:01.044Z,102328.19
2023-02-14T08:41:05.827Z,102332.69
2023-02-14T08:42:09.168Z,102325.06
2023-02-14T08:43:10.638Z,102325.06
2023-02-14T08:44:12.109Z,102323.66
2023-02-14T08:45:13.946Z,102322.63
2023-02-14T08:46:16.867Z,102325.44
2023-02-14T08:47:18.369Z,102325.44
2023-02-14T08:48:19.985Z,102327.84
2023-02-14T08:49:21.473Z,102324.22
2023-02-14T08:50:22.955Z,102330.94
2023-02-14T08:51:25.855Z,102322.81
2023-02-14T08:52:27.320Z,102331.44
2023-02-14T08:53:28.806Z,102327.81
2023-02-14T08:54:30.295Z,102329.91
2023-02-14T08:55:31.869Z,102334.22
2023-02-14T08:56:33.397Z,102328.13
2023-02-14T08:57:34.860Z,102332.25
2023-02-14T08:58:36.346Z,102329.13
2023-02-14T08:59:37.806Z,102324.94
2023-02-14T09:00:39.376Z,102326.28
2023-02-14T09:01:40.891Z,102326.97
2023-02-14T09:02:42.473Z,102321.09
2023-02-14T09:03:44.285Z,102329.03
2023-02-14T09:04:45.981Z,102325.59
2023-02-14T09:05:47.466Z,102322.84
2023-02-14T09:06:48.929Z,102332.19
2023-02-14T09:07:50.713Z,102324.56
2023-02-14T09:08:54.205Z,102319.03
2023-02-14T09:09:55.759Z,102324.22
2023-02-14T09:10:58.168Z,102331.84
2023-02-14T09:12:03.014Z,102332.19
2023-02-14T09:13:04.508Z,102329.94
2023-02-14T09:14:05.978Z,102330.59
2023-02-14T09:15:08.075Z,102335.97
2023-02-14T09:16:10.276Z,102327.31
2023-02-14T09:17:14.769Z,102326.25
2023-02-14T09:18:16.413Z,102320.34
2023-02-14T09:19:17.983Z,102326.56
2023-02-14T09:20:19.600Z,102324.47
2023-02-14T09:21:23.256Z,102322.59
2023-02-14T09:22:24.843Z,102319.81
2023-02-14T09:23:26.329Z,102319.63
2023-02-14T09:24:27.809Z,102319.25
2023-02-14T09:25:29.305Z,102323.75
2023-02-14T09:26:30.753Z,102320.97
2023-02-14T09:27:32.414Z,102323.38
2023-02-14T09:28:33.945Z,102317.66
2023-02-14T09:29:35.843Z,102326.81
2023-02-14T09:30:37.334Z,102327.19
2023-02-14T09:31:38.951Z,102326.72
2023-02-14T09:32:40.475Z,102320.31
2023-02-14T09:33:42.120Z,102325.66
2023-02-14T09:35:02.407Z,102327.56
2023-02-14T09:36:13.176Z,102322.41
2023-02-14T09:37:34.249Z,102318.94
2023-02-14T09:38:35.784Z,102320.69
2023-02-14T09:39:37.533Z,102324.13
2023-02-14T09:40:39.044Z,102324.13
2023-02-14T09:41:53.261Z,102315.16
2023-02-14T09:43:07.342Z,102315.88
2023-02-14T09:44:13.257Z,102316.91
2023-02-14T09:45:15.481Z,102315.88
2023-02-14T09:46:17.017Z,102313.59
2023-02-14T09:47:20.621Z,102316.72
2023-02-14T09:48:36.254Z,102315.00
2023-02-14T09:49:38.081Z,102326.25
2023-02-14T09:50:44.101Z,102320.72
2023-02-14T09:51:47.280Z,102319.69
2023-02-14T09:52:50.217Z,102323.13
2023-02-14T09:53:57.817Z,102319.13
2023-02-14T09:55:01.100Z,102317.22
2023-02-14T09:56:22.872Z,102316.88
2023-02-14T09:57:50.309Z,102320.31
2023-02-14T09:59:03.982Z,102316.13
2023-02-14T10:00:18.984Z,102316.97
2023-02-14T10:01:24.856Z,102308.50
2023-02-14T10:02:44.903Z,102304.66
2023-02-14T10:03:52.529Z,102308.16
2023-02-14T10:05:15.637Z,102314.53
2023-02-14T10:06:26.977Z,102317.13
2023-02-14T10:07:31.424Z,102313.31
2023-02-14T10:08:32.880Z,102312.44
2023-02-14T10:09:34.297Z,102309.50
2023-02-14T10:10:42.853Z,102315.69
2023-02-14T10:11:45.703Z,102307.38
2023-02-14T10:12:53.170Z,102301.66
2023-02-14T10:13:57.781Z,102309.97
2023-02-14T10:15:00.890Z,102307.00
2023-02-14T10:16:03.780Z,102310.53
2023-02-14T10:17:05.342Z,102312.25
2023-02-14T10:18:06.921Z,102307.56
2023-02-14T10:19:17.342Z,102313.97
2023-02-14T10:20:47.850Z,102307.19
2023-02-14T10:21:49.272Z,102312.25
2023-02-14T10:23:02.218Z,102312.25
2023-02-14T10:24:06.924Z,102311.19
2023-02-14T10:25:14.240Z,102315.69
2023-02-14T10:26:20.537Z,102315.50
2023-02-14T10:27:22.015Z,102319.81
2023-02-14T10:28:25.408Z,102308.72
2023-02-14T10:29:26.856Z,102317.72
2023-02-14T10:30:28.474Z,102317.72
2023-02-14T10:31:35.727Z,102312.25
2023-02-14T10:32:43.937Z,102306.91
2023-02-14T10:33:48.585Z,102310.19
2023-02-14T10:34:50.586Z,102315.75
2023-02-14T10:35:53.953Z,102312.63
2023-02-14T10:37:14.096Z,102307.81
2023-02-14T10:38:27.721Z,102304.56
2023-02-14T10:39:32.166Z,102302.84
2023-02-14T10:40:52.222Z,102305.22
2023-02-14T10:42:01.676Z,102307.25
2023-02-14T10:43:23.688Z,102296.69
2023-02-14T10:44:33.377Z,102303.56
2023-02-14T10:45:44.151Z,102294.22
2023-02-14T10:46:51.647Z,102294.69
2023-02-14T10:47:53.090Z,102297.97
2023-02-14T10:49:03.097Z,102295.69
2023-02-14T10:50:10.557Z,102296.56
2023-02-14T10:51:33.436Z,102290.63
2023-02-14T10:52:38.089Z,102283.84
2023-02-14T10:53:46.051Z,102289.22
2023-02-14T10:54:54.617Z,102291.81
2023-02-14T10:55:59.070Z,102286.09
2023-02-14T10:57:01.241Z,102278.44
2023-02-14T10:58:03.088Z,102286.75
2023-02-14T10:59:12.178Z,102281.69
2023-02-14T11:00:26.081Z,102278.56
2023-02-14T11:01:27.808Z,102276.28
2023-02-14T11:02:36.686Z,102274.19
2023-02-14T11:03:38.643Z,102279.53
2023-02-14T11:04:41.514Z,102281.25
2023-02-14T11:05:46.151Z,102280.00
2023-02-14T11:06:50.997Z,102277.22
2023-02-14T11:07:52.500Z,102275.16
2023-02-14T11:08:56.207Z,102273.25
2023-02-14T11:09:58.732Z,102275.81
2023-02-14T11:11:05.480Z,102266.47
2023-02-14T11:12:07.089Z,102270.94
2023-02-14T11:13:27.100Z,102265.22
2023-02-14T11:14:30.301Z,102263.09
2023-02-14T11:15:32.703Z,102260.16
2023-02-14T11:16:35.024Z,102260.53
2023-02-14T11:17:37.356Z,102259.66
2023-02-14T11:18:40.000Z,102267.78
2023-02-14T11:19:41.537Z,102260.53
2023-02-14T11:20:43.049Z,102262.06
2023-02-14T11:21:44.976Z,102256.31
2023-02-14T11:22:46.442Z,102249.06
2023-02-14T11:23:48.423Z,102267.41
2023-02-14T11:24:50.029Z,102258.75
2023-02-14T11:25:52.031Z,102256.63
2023-02-14T11:26:55.623Z,102257.69
2023-02-14T11:28:03.542Z,102267.72
2023-02-14T11:29:10.890Z,102254.72
2023-02-14T11:30:13.544Z,102252.63
2023-02-14T11:31:15.104Z,102255.19
2023-02-14T11:32:37.607Z,102254.34
2023-02-14T11:33:39.730Z,102252.22
2023-02-14T11:34:41.540Z,102247.53
2023-02-14T11:35:43.085Z,102250.13
2023-02-14T11:36:44.735Z,102246.50
2023-02-14T11:37:49.438Z,102250.97
2023-02-14T11:39:01.277Z,102248.22
2023-02-14T11:40:03.868Z,102249.94
2023-02-14T11:41:10.103Z,102238.84
2023-02-14T11:42:12.006Z,102247.16
2023-02-14T11:43:14.809Z,102234.16
2023-02-14T11:44:22.549Z,102242.31
2023-02-14T11:45:34.240Z,102233.78
2023-02-14T11:46:47.616Z,102235.50
2023-02-14T11:48:15.090Z,102234.47
2023-02-14T11:49:34.965Z,102219.94
2023-02-14T11:50:36.546Z,102223.38
2023-02-14T11:51:40.208Z,102228.72
2023-02-14T11:52:47.266Z,102228.53
2023-02-14T11:53:49.337Z,102225.56
2023-02-14T11:54:51.031Z,102221.72
2023-02-14T11:55:56.506Z,102221.38
2023-02-14T11:57:10.118Z,102229.69
2023-02-14T11:58:11.566Z,102223.94
2023-02-14T11:59:13.509Z,102221.38
2023-02-14T12:00:16.835Z,102218.59
2023-02-14T12:01:22.231Z,102219.25
2023-02-14T12:02:33.040Z,102218.41
2023-02-14T12:03:38.209Z,102210.94
2023-02-14T12:04:46.079Z,102210.94
2023-02-14T12:05:48.906Z,102202.44
2023-02-14T12:06:50.460Z,102205.19
2023-02-14T12:07:55.598Z,102204.81
2023-02-14T12:09:12.386Z,102212.06
2023-02-14T12:10:16.715Z,102212.94
2023-02-14T12:11:19.577Z,102209.97
2023-02-14T12:12:23.269Z,102205.28